Time;durP1;ratioP1;P1;durP2;ratioP2;P2;SDS_P1;SDS_P2;PMS_P1;PMS_P2;Temp;Humidity;BMP_temperature;BMP_pressure;BME280_temperature;BME280_humidity;BME280_pressure;Samples;Min_cycle;Max_cycle;Signal;HPM_P1;HPM_P2
2022/08/16 00:00:37;;;;;;;4.22;2.05;;;;;;;21.35;63.54;99297.25;5034719;28;20041;-78
2022/08/16 00:03:04;;;;;;;4.50;2.20;;;;;;;21.24;63.83;99291.88;5034367;28;20038;-78
2022/08/16 00:05:30;;;;;;;4.20;2.05;;;;;;;21.15;64.57;99297.97;5034616;28;20037;-79
2022/08/16 00:07:55;;;;;;;4.80;1.83;;;;;;;21.16;64.67;99290.44;5034706;28;20129;-78
2022/08/16 00:10:23;;;;;;;4.72;2.53;;;;;;;21.23;64.50;99293.09;5034535;28;20042;-79
2022/08/16 00:12:50;;;;;;;4.78;2.40;;;;;;;21.09;64.96;99294.16;5034301;28;20033;-78
2022/08/16 00:15:20;;;;;;;5.20;2.38;;;;;;;20.85;66.00;99300.97;5033882;28;20029;-79
2022/08/16 00:17:45;;;;;;;6.22;2.90;;;;;;;20.77;66.35;99303.06;5034077;28;20033;-79
2022/08/16 00:20:11;;;;;;;8.40;2.33;;;;;;;21.01;65.58;99303.81;5034195;28;20122;-78
2022/08/16 00:22:40;;;;;;;6.75;2.40;;;;;;;20.94;65.68;99307.47;5033084;28;20104;-79
2022/08/16 00:25:09;;;;;;;4.65;2.47;;;;;;;21.07;65.60;99307.63;5016011;28;20072;-79
2022/08/16 00:27:35;;;;;;;3.75;2.05;;;;;;;20.98;65.85;99308.19;5034141;28;20063;-78
2022/08/16 00:30:00;;;;;;;4.10;2.30;;;;;;;20.89;66.08;99307.97;5034031;28;20120;-79
2022/08/16 00:32:27;;;;;;;4.28;1.98;;;;;;;20.85;66.33;99310.03;5034063;28;20041;-79
2022/08/16 00:34:52;;;;;;;4.10;2.10;;;;;;;20.62;67.26;99316.34;5034201;28;20036;-78
2022/08/16 00:37:18;;;;;;;4.65;2.15;;;;;;;20.56;67.54;99312.53;5033921;28;20033;-79
2022/08/16 00:39:45;;;;;;;5.10;2.38;;;;;;;20.51;67.91;99310.25;5033927;28;20056;-79
2022/08/16 00:42:10;;;;;;;4.63;2.33;;;;;;;20.40;68.52;99304.06;5033911;28;20129;-78
2022/08/16 00:44:36;;;;;;;6.90;2.75;;;;;;;20.38;68.71;99307.25;5033608;28;20053;-79
2022/08/16 00:47:07;;;;;;;4.72;2.50;;;;;;;20.34;68.80;99308.53;5033748;28;20108;-79
2022/08/16 00:49:34;;;;;;;5.05;2.67;;;;;;;20.31;68.95;99310.13;5033914;28;20073;-79
2022/08/16 00:51:59;;;;;;;6.07;2.75;;;;;;;20.26;69.13;99299.56;5015797;28;20548;-79
2022/08/16 00:54:28;;;;;;;5.60;2.80;;;;;;;20.26;69.27;99307.06;5033193;28;20112;-79
2022/08/16 00:56:54;;;;;;;6.57;2.70;;;;;;;20.22;69.23;99309.13;5033125;28;20095;-79
2022/08/16 00:59:23;;;;;;;5.80;2.50;;;;;;;20.19;69.49;99312.72;5033287;28;20103;-80
2022/08/16 01:01:49;;;;;;;4.97;2.63;;;;;;;20.10;69.68;99308.50;5033463;28;20044;-79
2022/08/16 01:04:19;;;;;;;5.40;2.88;;;;;;;20.08;70.19;99310.91;5032891;28;20025;-79
2022/08/16 01:06:44;;;;;;;6.43;3.35;;;;;;;20.02;70.32;99315.34;5032998;28;20069;-79
2022/08/16 01:09:10;;;;;;;5.15;2.60;;;;;;;20.08;69.97;99313.66;5032959;28;20406;-79
2022/08/16 01:11:37;;;;;;;6.35;2.60;;;;;;;20.14;69.99;99311.97;5034127;28;20373;-78
2022/08/16 01:14:11;;;;;;;5.82;2.70;;;;;;;20.10;69.94;99318.75;5033531;28;20352;-79
2022/08/16 01:16:38;;;;;;;6.93;2.83;;;;;;;20.17;69.99;99323.41;5033234;28;20030;-79
2022/08/16 01:19:18;;;;;;;5.10;2.63;;;;;;;20.17;69.88;99315.13;5033007;28;20045;-79
2022/08/16 01:21:53;;;;;;;4.80;2.42;;;;;;;20.04;70.42;99314.91;5032804;28;20033;-79
2022/08/16 01:24:24;;;;;;;6.70;3.33;;;;;;;19.98;70.78;99316.56;5032973;28;20044;-79
2022/08/16 01:26:54;;;;;;;4.78;2.38;;;;;;;20.07;70.53;99322.38;5015291;28;20061;-79
2022/08/16 01:29:28;;;;;;;5.65;2.90;;;;;;;20.02;70.52;99320.88;5032801;28;20046;-78
2022/08/16 01:31:54;;;;;;;4.80;2.60;;;;;;;19.98;70.57;99314.59;5032985;28;20176;-78
2022/08/16 01:34:19;;;;;;;6.25;3.00;;;;;;;19.97;70.72;99315.00;5032381;28;20116;-78
2022/08/16 01:36:44;;;;;;;5.63;2.88;;;;;;;20.02;70.45;99315.34;5032501;28;20522;-77
2022/08/16 01:39:14;;;;;;;5.13;2.70;;;;;;;20.03;70.49;99324.41;5032658;28;20041;-78
2022/08/16 01:41:40;;;;;;;4.88;2.58;;;;;;;20.19;69.81;99315.50;5032664;28;20509;-78
2022/08/16 01:44:06;;;;;;;5.57;2.83;;;;;;;20.16;69.81;99319.09;5032636;28;20053;-80
2022/08/16 01:46:36;;;;;;;6.18;2.65;;;;;;;20.10;70.09;99307.72;5032434;28;20108;-77
2022/08/16 01:49:09;;;;;;;5.45;2.40;;;;;;;20.06;70.21;99313.28;5032416;28;20048;-77
2022/08/16 01:51:36;;;;;;;6.47;2.70;;;;;;;20.10;70.06;99308.50;5032351;28;20029;-77
2022/08/16 01:54:02;;;;;;;7.38;2.38;;;;;;;20.05;70.02;99308.19;5032460;28;20033;-76
2022/08/16 01:56:28;;;;;;;5.85;3.20;;;;;;;20.04;70.22;99309.38;5032245;28;20025;-77
2022/08/16 01:58:55;;;;;;;5.30;2.80;;;;;;;20.01;70.22;99299.97;5033045;28;20359;-77
2022/08/16 02:01:21;;;;;;;6.40;2.97;;;;;;;20.08;70.14;99305.38;5033057;28;20035;-77
2022/08/16 02:03:46;;;;;;;6.50;2.78;;;;;;;20.02;70.35;99298.75;5032737;28;20034;-77
2022/08/16 02:06:11;;;;;;;5.07;2.63;;;;;;;19.98;70.51;99306.31;5032022;28;20460;-77
2022/08/16 02:08:37;;;;;;;5.35;2.70;;;;;;;19.91;70.60;99303.66;5032107;28;20025;-76
2022/08/16 02:11:05;;;;;;;5.28;2.67;;;;;;;19.92;70.49;99305.22;5032584;28;20021;-77
2022/08/16 02:13:31;;;;;;;5.60;2.60;;;;;;;20.00;70.17;99308.66;5032238;28;20380;-77
2022/08/16 02:15:56;;;;;;;5.22;2.55;;;;;;;19.91;70.40;99308.41;5014718;28;20029;-77
2022/08/16 02:18:21;;;;;;;5.07;2.60;;;;;;;19.92;70.50;99305.22;5032559;28;20043;-77
2022/08/16 02:20:48;;;;;;;;;;;;;;;19.88;70.70;99312.78;5032703;28;20044;-76
2022/08/16 02:23:14;;;;;;;4.25;2.47;;;;;;;19.86;70.60;99311.63;5031973;28;19921;-76
2022/08/16 02:25:39;;;;;;;6.05;2.63;;;;;;;19.85;70.61;99313.63;5032175;28;20079;-78
2022/08/16 02:28:05;;;;;;;4.70;2.40;;;;;;;19.86;70.58;99311.63;5032331;28;20029;-78
2022/08/16 02:30:31;;;;;;;6.78;2.60;;;;;;;19.80;70.84;99312.09;5032047;28;20119;-78
2022/08/16 02:32:57;;;;;;;5.78;2.92;;;;;;;19.73;71.12;99311.41;5032159;28;20072;-79
2022/08/16 02:35:24;;;;;;;5.82;2.40;;;;;;;19.72;71.10;99315.38;5032518;28;20069;-79
2022/08/16 02:37:51;;;;;;;5.97;2.25;;;;;;;19.68;71.24;99314.66;5032489;28;20480;-79
2022/08/16 02:40:17;;;;;;;4.78;2.15;;;;;;;19.62;71.44;99310.75;5031719;28;20086;-79
2022/08/16 02:42:44;;;;;;;4.85;2.50;;;;;;;19.61;71.39;99298.94;5031963;28;20384;-79
2022/08/16 02:45:09;;;;;;;7.47;2.33;;;;;;;19.59;71.52;99301.34;5033326;28;20037;-79
2022/08/16 02:47:35;;;;;;;4.88;2.30;;;;;;;19.57;71.50;99292.69;5035556;28;20045;-79
2022/08/16 02:50:00;;;;;;;;;;;;;;;19.51;71.56;99295.13;5036224;28;20072;-78
2022/08/16 02:52:25;;;;;;;5.30;2.70;;;;;;;19.51;71.90;99300.63;5035741;28;19917;-79
2022/08/16 02:54:51;;;;;;;5.65;2.50;;;;;;;19.49;71.92;99297.50;5035927;28;20474;-79
2022/08/16 02:57:16;;;;;;;3.95;1.98;;;;;;;19.52;71.80;99293.91;5035563;28;20551;-78
2022/08/16 02:59:42;;;;;;;6.07;2.10;;;;;;;19.50;71.90;99295.53;5035319;28;20546;-79
2022/08/16 03:02:09;;;;;;;;;;;;;;;19.52;71.75;99295.91;5035995;28;20100;-79
2022/08/16 03:04:34;;;;;;;5.85;2.65;;;;;;;19.45;71.88;99296.75;5035280;28;20264;-79
2022/08/16 03:07:00;;;;;;;5.18;2.38;;;;;;;19.41;72.04;99301.53;5035137;28;20052;-78
2022/08/16 03:09:25;;;;;;;6.07;2.60;;;;;;;19.36;72.10;99304.78;5035291;28;20095;-79
2022/08/16 03:11:50;;;;;;;6.20;3.03;;;;;;;19.37;71.96;99303.56;5035248;28;20041;-78
2022/08/16 03:14:16;;;;;;;;;;;;;;;19.33;72.34;99294.56;5036307;28;20053;-80
2022/08/16 03:16:41;;;;;;;4.97;2.40;;;;;;;19.29;72.46;99293.81;5035281;28;19913;-78
2022/08/16 03:19:07;;;;;;;;;;;;;;;19.26;72.55;99300.16;5035625;28;20382;-78
2022/08/16 03:21:32;;;;;;;5.57;2.63;;;;;;;19.33;72.40;99299.31;5035027;28;20000;-78
2022/08/16 03:23:57;;;;;;;4.22;2.15;;;;;;;19.29;72.56;99304.06;5035280;28;20033;-78
2022/08/16 03:26:23;;;;;;;;;;;;;;;19.22;72.61;99305.72;5035561;28;20417;-78
2022/08/16 03:28:48;;;;;;;4.33;2.33;;;;;;;19.19;72.80;99303.78;5035131;28;19916;-78
2022/08/16 03:31:13;;;;;;;;;;;;;;;19.15;72.90;99299.50;5035082;28;20276;-79
2022/08/16 03:33:39;;;;;;;5.13;2.30;;;;;;;19.12;73.04;99303.84;5035311;28;19932;-79
2022/08/16 03:36:05;;;;;;;;;;;;;;;19.09;73.24;99303.91;5035198;28;20037;-79
2022/08/16 03:38:31;;;;;;;5.15;2.67;;;;;;;19.11;73.18;99301.50;5034755;28;19913;-79
2022/08/16 03:40:58;;;;;;;4.60;2.15;;;;;;;19.04;73.60;99309.88;5034972;28;20033;-79
2022/08/16 03:43:24;;;;;;;6.88;2.50;;;;;;;19.15;73.05;99310.56;5034765;28;20503;-79
2022/08/16 03:45:51;;;;;;;5.65;2.67;;;;;;;19.15;72.96;99308.56;5034684;28;20411;-79
2022/08/16 03:48:17;;;;;;;5.18;2.47;;;;;;;19.09;73.06;99310.19;5034530;28;20033;-79
2022/08/16 03:50:42;;;;;;;4.75;2.40;;;;;;;19.07;73.13;99315.34;5034822;28;20117;-79
2022/08/16 03:53:08;;;;;;;;;;;;;;;19.21;72.64;99320.72;5035001;28;20040;-79
2022/08/16 03:55:33;;;;;;;7.30;3.05;;;;;;;19.16;73.04;99328.66;5034735;28;19963;-79
2022/08/16 03:57:58;;;;;;;;;;;;;;;19.11;72.96;99329.09;5035189;28;20041;-79
2022/08/16 04:00:26;;;;;;;6.10;2.50;;;;;;;19.21;72.29;99328.22;5034385;28;19921;-78
2022/08/16 04:02:55;;;;;;;4.45;2.15;;;;;;;18.96;73.58;99330.44;5034275;28;20071;-79
2022/08/16 04:05:21;;;;;;;4.55;2.15;;;;;;;18.90;73.64;99325.38;5034609;28;20475;-79
2022/08/16 04:07:46;;;;;;;5.25;2.38;;;;;;;18.94;73.70;99326.13;5034327;28;20079;-79
2022/08/16 04:10:13;;;;;;;5.50;2.45;;;;;;;18.90;73.49;99330.91;5034078;28;20029;-79
2022/08/16 04:12:39;;;;;;;4.57;2.58;;;;;;;18.84;73.87;99345.56;5034158;28;20029;-78
2022/08/16 04:15:11;;;;;;;4.35;2.13;;;;;;;18.82;73.75;99336.91;5034433;28;20036;-78
2022/08/16 04:17:36;;;;;;;4.40;2.45;;;;;;;18.94;73.22;99342.66;5033800;28;20033;-79
2022/08/16 04:20:07;;;;;;;4.15;2.22;;;;;;;18.83;73.73;99339.25;5034561;28;20464;-82
2022/08/16 04:22:32;;;;;;;5.38;2.72;;;;;;;18.78;74.06;99336.91;5034467;28;20461;-79
2022/08/16 04:24:58;;;;;;;4.10;2.03;;;;;;;18.75;73.94;99343.25;5034429;28;20087;-79
2022/08/16 04:27:24;;;;;;;;;;;;;;;18.74;74.00;99338.16;5034609;28;20048;-81
2022/08/16 04:29:49;;;;;;;4.93;2.47;;;;;;;18.71;74.17;99342.50;5033486;28;19916;-78
2022/08/16 04:32:14;;;;;;;;;;;;;;;18.70;74.11;99340.94;5034158;28;20028;-80
2022/08/16 04:34:40;;;;;;;5.70;2.63;;;;;;;18.74;74.07;99347.22;5033867;28;19970;-78
2022/08/16 04:37:06;;;;;;;;;;;;;;;18.75;73.98;99350.75;5034303;28;20264;-81
2022/08/16 04:39:33;;;;;;;4.45;2.15;;;;;;;18.77;74.04;99354.66;5034297;28;19972;-82
2022/08/16 04:41:59;;;;;;;6.30;2.92;;;;;;;18.80;73.48;99361.34;5034597;28;20025;-82
2022/08/16 04:44:24;;;;;;;6.00;2.63;;;;;;;18.78;73.83;99356.22;5034740;28;20041;-82
2022/08/16 04:46:51;;;;;;;5.93;2.45;;;;;;;18.75;73.81;99359.81;5034163;28;20093;-82
2022/08/16 04:49:17;;;;;;;5.43;2.50;;;;;;;18.74;73.90;99351.94;5034902;28;20103;-82
2022/08/16 04:51:42;;;;;;;4.72;2.28;;;;;;;18.73;73.89;99351.16;5037644;28;20034;-83
2022/08/16 04:54:09;;;;;;;4.68;2.40;;;;;;;18.75;73.77;99356.25;5036481;28;20065;-84
2022/08/16 04:56:35;;;;;;;5.85;2.60;;;;;;;18.78;73.59;99353.47;5035337;28;20079;-83
2022/08/16 04:59:01;;;;;;;6.57;2.30;;;;;;;18.80;73.58;99353.84;5036252;28;20125;-82
2022/08/16 05:01:26;;;;;;;6.35;2.25;;;;;;;18.81;73.28;99362.91;5034293;28;20052;-85
2022/08/16 05:03:52;;;;;;;4.32;2.22;;;;;;;18.81;73.65;99363.72;5034255;28;20032;-83
2022/08/16 05:06:17;;;;;;;;;;;;;;;18.84;73.18;99359.34;5034642;28;20026;-83
2022/08/16 05:08:42;;;;;;;4.70;2.40;;;;;;;18.86;73.17;99368.00;5033689;28;20003;-82
2022/08/16 05:11:10;;;;;;;4.93;2.15;;;;;;;18.87;72.99;99369.56;5034041;28;20104;-82
2022/08/16 05:13:40;;;;;;;5.07;2.65;;;;;;;18.89;72.95;99369.94;5033415;28;20128;-81
2022/08/16 05:16:08;;;;;;;5.07;2.50;;;;;;;18.91;72.75;99373.84;5033785;28;20049;-81
2022/08/16 05:18:35;;;;;;;5.80;2.40;;;;;;;18.89;72.93;99376.22;5016164;28;20365;-81
2022/08/16 05:21:01;;;;;;;4.45;2.30;;;;;;;18.96;72.69;99380.09;5034110;28;20038;-84
2022/08/16 05:23:26;;;;;;;5.03;2.90;;;;;;;18.96;72.69;99374.56;5034526;28;20380;-84
2022/08/16 05:25:52;;;;;;;;;;;;;;;18.98;72.81;99369.44;5034264;28;20033;-82
2022/08/16 05:28:17;;;;;;;6.30;2.83;;;;;;;18.96;72.82;99374.56;5034871;28;19919;-83
2022/08/16 05:30:43;;;;;;;4.30;2.40;;;;;;;19.06;72.49;99374.50;5033467;28;20039;-82
2022/08/16 05:33:08;;;;;;;;;;;;;;;19.08;72.37;99385.09;5034128;28;20029;-83
2022/08/16 05:35:34;;;;;;;5.65;2.35;;;;;;;19.06;72.58;99385.53;5034142;28;19912;-87
2022/08/16 05:37:59;;;;;;;;;;;;;;;19.12;72.42;99389.38;5034923;28;20038;-83
2022/08/16 05:40:24;;;;;;;4.37;2.00;;;;;;;19.16;72.02;99378.34;5033886;28;19931;-83
2022/08/16 05:42:50;;;;;;;;;;;;;;;19.17;72.24;99372.41;5033827;28;20326;-84
2022/08/16 05:45:15;;;;;;;4.50;2.47;;;;;;;19.20;72.29;99396.41;5034161;28;19913;-84
2022/08/16 05:47:40;;;;;;;;;;;;;;;19.24;72.05;99371.53;5033912;28;20294;-82
2022/08/16 05:50:07;;;;;;;4.57;2.20;;;;;;;19.36;72.21;99384.03;5034394;28;19999;-84
2022/08/16 05:52:32;;;;;;;5.88;2.13;;;;;;;19.56;70.99;99379.47;5034000;28;20076;-85
2022/08/16 05:54:58;;;;;;;4.10;2.50;;;;;;;19.50;71.37;99386.63;5033680;28;20057;-87
2022/08/16 05:57:23;;;;;;;;;;;;;;;19.55;71.24;99388.19;5034932;28;20033;-84
2022/08/16 05:59:49;;;;;;;9.70;2.45;;;;;;;19.61;71.13;99381.78;5035229;28;19991;-86
2022/08/16 06:02:14;;;;;;;5.10;2.30;;;;;;;19.71;70.59;99391.16;5035003;28;20033;-87
2022/08/16 06:04:40;;;;;;;5.70;2.45;;;;;;;19.68;70.86;99386.44;5034585;28;20030;-85
2022/08/16 06:07:05;;;;;;;5.47;2.50;;;;;;;19.71;70.92;99391.94;5034158;28;20103;-84
2022/08/16 06:09:31;;;;;;;;;;;;;;;19.85;71.02;99387.41;5035830;28;20032;-84
2022/08/16 06:11:59;;;;;;;4.32;2.40;;;;;;;20.00;70.04;99386.81;5034749;28;19963;-85
2022/08/16 06:14:24;;;;;;;4.68;2.50;;;;;;;19.99;69.93;99387.25;5035158;28;20022;-85
2022/08/16 06:16:50;;;;;;;4.65;2.58;;;;;;;19.95;70.19;99378.97;5035590;28;20034;-86
2022/08/16 06:19:15;;;;;;;;;;;;;;;19.98;70.29;99385.66;5017885;28;20033;-84
2022/08/16 06:21:40;;;;;;;5.70;2.73;;;;;;;19.93;70.08;99386.13;5037888;28;19948;-83
2022/08/16 06:24:06;;;;;;;5.35;3.08;;;;;;;20.08;69.93;99393.00;5047873;28;20029;-82
2022/08/16 06:26:31;;;;;;;;;;;;;;;20.18;69.82;99396.84;5056686;28;20029;-84
2022/08/16 06:28:56;;;;;;;4.67;2.60;;;;;;;20.24;69.46;99403.44;5049162;28;19913;-81
2022/08/16 06:31:21;;;;;;;;;;;;;;;20.42;68.82;99401.22;5043055;28;20302;-86
2022/08/16 06:33:47;;;;;;;5.63;2.80;;;;;;;20.40;68.81;99412.69;5039488;28;19963;-84
2022/08/16 06:36:13;;;;;;;5.00;2.00;;;;;;;20.34;69.05;99416.34;5038610;28;20355;-84
2022/08/16 06:38:38;;;;;;;5.57;2.22;;;;;;;20.45;68.92;99405.94;5038155;28;20366;-84
2022/08/16 06:41:06;;;;;;;4.35;2.30;;;;;;;20.50;68.93;99413.75;5038288;28;20086;-83
2022/08/16 06:43:32;;;;;;;4.57;2.20;;;;;;;20.59;68.26;99422.31;5037379;28;20038;-86
2022/08/16 06:45:59;;;;;;;4.18;2.17;;;;;;;20.76;67.88;99420.44;5039126;28;20389;-86
2022/08/16 06:48:24;;;;;;;4.88;2.50;;;;;;;21.24;66.10;99419.22;5038700;28;20064;-82
2022/08/16 06:50:51;;;;;;;4.32;2.60;;;;;;;21.57;65.09;99425.75;5019635;28;20033;-84
2022/08/16 06:53:16;;;;;;;5.00;2.40;;;;;;;22.13;63.18;99418.28;5037869;28;20120;-84
2022/08/16 06:55:43;;;;;;;4.28;1.90;;;;;;;22.80;60.92;99420.69;5038213;28;20056;-82
2022/08/16 06:58:09;;;;;;;4.32;2.30;;;;;;;23.08;59.79;99414.44;5038556;28;20041;-83
2022/08/16 07:00:35;;;;;;;5.25;2.47;;;;;;;23.03;59.94;99414.97;5038813;28;20037;-84
2022/08/16 07:03:00;;;;;;;5.47;2.80;;;;;;;23.15;59.34;99412.69;5039608;28;20029;-84
2022/08/16 07:05:25;;;;;;;4.67;2.13;;;;;;;22.99;60.44;99403.16;5042653;28;20104;-87
2022/08/16 07:07:51;;;;;;;4.43;2.38;;;;;;;23.31;58.74;99413.44;5044452;28;20264;-84
2022/08/16 07:10:17;;;;;;;5.22;2.28;;;;;;;23.64;58.15;99407.81;5044824;28;20037;-84
2022/08/16 07:12:43;;;;;;;6.35;2.72;;;;;;;23.42;59.06;99413.94;5046210;28;20175;-83
2022/08/16 07:15:09;;;;;;;4.90;1.95;;;;;;;23.58;58.54;99417.91;5040518;28;20092;-84
2022/08/16 07:17:35;;;;;;;5.07;2.28;;;;;;;23.63;58.15;99422.91;5040774;28;20026;-83
2022/08/16 07:20:02;;;;;;;4.65;2.50;;;;;;;23.50;58.45;99431.19;5043717;28;20030;-83
2022/08/16 07:22:27;;;;;;;6.38;2.80;;;;;;;23.49;58.81;99426.06;5043595;28;20033;-85
2022/08/16 07:24:53;;;;;;;4.35;2.50;;;;;;;23.53;58.88;99435.09;5045508;28;20037;-84
2022/08/16 07:27:18;;;;;;;4.13;2.30;;;;;;;23.21;59.71;99433.19;5050672;28;20451;-86
2022/08/16 07:29:44;;;;;;;5.38;2.30;;;;;;;22.97;60.60;99438.91;5052363;28;20093;-85
2022/08/16 07:32:10;;;;;;;4.55;2.53;;;;;;;22.40;62.47;99447.81;5050375;28;20030;-84
2022/08/16 07:34:35;;;;;;;4.65;2.20;;;;;;;22.70;61.99;99446.72;5047883;28;20104;-86
2022/08/16 07:37:04;;;;;;;4.68;2.47;;;;;;;22.75;61.79;99446.19;5045170;28;20055;-88
2022/08/16 07:39:30;;;;;;;4.95;2.70;;;;;;;22.81;62.05;99450.00;5042565;28;20033;-87
2022/08/16 07:41:55;;;;;;;5.10;2.33;;;;;;;23.07;60.79;99450.97;5043714;28;20547;-87
2022/08/16 07:44:20;;;;;;;4.53;2.40;;;;;;;23.01;61.17;99445.19;5041312;28;20057;-87
2022/08/16 07:46:46;;;;;;;4.82;2.53;;;;;;;22.84;61.39;99451.94;5038961;28;20057;-86
2022/08/16 07:49:11;;;;;;;5.07;2.80;;;;;;;23.03;60.62;99445.53;5039267;28;20042;-88
2022/08/16 07:51:37;;;;;;;5.00;2.80;;;;;;;23.09;60.65;99446.53;5038775;28;20072;-88
2022/08/16 07:54:05;;;;;;;4.80;2.78;;;;;;;22.97;61.03;99454.78;5038606;28;20468;-87
2022/08/16 07:56:30;;;;;;;10.57;3.45;;;;;;;23.02;60.63;99457.84;5038580;28;20093;-88
2022/08/16 07:58:56;;;;;;;4.85;2.50;;;;;;;22.81;60.94;99453.56;5038050;28;20036;-83
2022/08/16 08:01:22;;;;;;;4.45;2.17;;;;;;;23.07;60.69;99453.75;5018837;28;20159;-84
2022/08/16 08:03:49;;;;;;;5.00;2.55;;;;;;;23.40;59.84;99454.47;5038450;28;20040;-83
2022/08/16 08:06:17;;;;;;;4.20;2.42;;;;;;;23.33;60.01;99457.44;5036029;28;20085;-85
2022/08/16 08:08:42;;;;;;;4.90;2.67;;;;;;;23.44;60.14;99462.72;5036894;28;20036;-84
2022/08/16 08:11:08;;;;;;;5.57;2.85;;;;;;;23.58;59.08;99467.94;5019527;28;20069;-84
2022/08/16 08:13:34;;;;;;;4.97;2.90;;;;;;;23.64;59.14;99469.72;5037196;28;20122;-83
2022/08/16 08:15:59;;;;;;;4.80;2.60;;;;;;;23.49;59.34;99478.84;5037371;28;20034;-85
2022/08/16 08:18:24;;;;;;;5.03;2.83;;;;;;;23.38;59.79;99476.38;5036639;28;20117;-83
2022/08/16 08:20:50;;;;;;;5.70;2.45;;;;;;;23.43;59.50;99478.59;5018838;28;20116;-85
2022/08/16 08:23:16;;;;;;;6.13;2.58;;;;;;;23.40;59.79;99485.03;5037240;28;20033;-85
2022/08/16 08:25:42;;;;;;;6.15;2.85;;;;;;;23.32;60.16;99480.88;5037422;28;20503;-86
2022/08/16 08:28:08;;;;;;;6.20;3.08;;;;;;;23.59;59.28;99488.94;5037203;28;20037;-87
2022/08/16 08:30:34;;;;;;;6.40;2.63;;;;;;;23.78;58.41;99478.88;5037518;28;20045;-85
2022/08/16 08:33:00;;;;;;;4.90;2.20;;;;;;;23.74;59.16;99487.34;5036733;28;20025;-88
2022/08/16 08:35:25;;;;;;;5.68;2.72;;;;;;;23.76;58.94;99481.34;5036814;28;20025;-87
2022/08/16 08:37:51;;;;;;;4.53;2.63;;;;;;;23.78;58.75;99487.22;5036025;28;20479;-87
2022/08/16 08:40:17;;;;;;;5.72;2.47;;;;;;;24.05;58.44;99493.22;5035146;28;20036;-85
2022/08/16 08:42:44;;;;;;;5.78;2.60;;;;;;;24.18;57.46;99491.22;5036067;28;20117;-87
2022/08/16 08:45:12;;;;;;;5.95;3.25;;;;;;;24.10;57.68;99489.09;5035394;28;20104;-85
2022/08/16 08:47:38;;;;;;;7.22;2.75;;;;;;;24.18;56.88;99485.66;5035931;28;20029;-87
2022/08/16 08:50:05;;;;;;;5.32;2.78;;;;;;;24.32;56.99;99487.28;5035716;28;20084;-85
2022/08/16 08:52:30;;;;;;;6.65;3.30;;;;;;;24.17;56.63;99492.44;5037174;28;20103;-87
2022/08/16 08:54:57;;;;;;;5.63;3.05;;;;;;;24.25;56.58;99501.38;5017566;28;20021;-84
2022/08/16 08:57:22;;;;;;;8.15;3.42;;;;;;;24.30;56.46;99495.28;5035560;28;20044;-86
2022/08/16 08:59:48;;;;;;;5.43;2.95;;;;;;;24.35;56.80;99491.16;5017254;28;20456;-87
2022/08/16 09:02:15;;;;;;;7.70;2.70;;;;;;;24.45;56.37;99495.63;5017165;28;20444;-86
2022/08/16 09:04:40;;;;;;;5.10;2.70;;;;;;;24.58;56.13;99490.88;5034744;28;20456;-85
2022/08/16 09:07:06;;;;;;;5.57;2.95;;;;;;;24.65;56.30;99490.63;5034138;28;20079;-86
2022/08/16 09:09:31;;;;;;;6.32;2.63;;;;;;;24.69;55.50;99485.75;5035194;28;20034;-86
2022/08/16 09:11:57;;;;;;;5.22;2.83;;;;;;;24.76;55.06;99485.53;5034710;28;20032;-87
2022/08/16 09:14:23;;;;;;;4.75;2.72;;;;;;;24.77;54.51;99492.66;5017229;28;20041;-87
2022/08/16 09:16:50;;;;;;;5.78;2.72;;;;;;;24.78;54.81;99494.19;5035786;28;20168;-86
2022/08/16 09:19:16;;;;;;;4.55;2.58;;;;;;;24.75;54.78;99499.88;5022132;28;20029;-86
2022/08/16 09:21:41;;;;;;;6.28;2.78;;;;;;;24.74;54.62;99498.34;5036459;28;20148;-85
2022/08/16 09:24:07;;;;;;;4.53;2.70;;;;;;;24.89;54.49;99496.66;5039099;28;20056;-87
2022/08/16 09:26:32;;;;;;;6.45;2.80;;;;;;;24.91;53.91;99499.75;5035557;28;20113;-86
2022/08/16 09:28:58;;;;;;;4.80;2.60;;;;;;;25.05;53.90;99502.13;5035475;28;20038;-88
2022/08/16 09:31:23;;;;;;;4.85;2.75;;;;;;;24.82;52.10;99494.06;5034887;28;20091;-85
2022/08/16 09:33:49;;;;;;;5.78;2.78;;;;;;;25.01;52.01;99500.66;5034227;28;20026;-83
2022/08/16 09:36:15;;;;;;;5.10;2.65;;;;;;;25.28;51.97;99503.75;5034224;28;20094;-84
2022/08/16 09:38:41;;;;;;;4.82;2.97;;;;;;;25.23;52.23;99501.53;5034123;28;20540;-86
2022/08/16 09:41:09;;;;;;;4.90;2.40;;;;;;;25.41;52.43;99496.13;5033811;28;20034;-85
2022/08/16 09:43:35;;;;;;;5.68;3.33;;;;;;;25.33;52.90;99500.38;5034461;28;20048;-84
2022/08/16 09:46:03;;;;;;;5.05;2.55;;;;;;;25.55;52.16;99491.31;5033523;28;20034;-87
2022/08/16 09:48:28;;;;;;;6.47;2.97;;;;;;;25.59;52.32;99486.38;5034050;28;20060;-86
2022/08/16 09:50:54;;;;;;;6.25;3.05;;;;;;;25.68;52.55;99490.03;5033969;28;20444;-87
2022/08/16 09:53:22;;;;;;;4.75;2.72;;;;;;;25.65;51.23;99492.91;5034333;28;20079;-85
2022/08/16 09:55:51;;;;;;;7.57;3.40;;;;;;;25.77;51.59;99484.53;5033804;28;20104;-86
2022/08/16 09:58:22;;;;;;;6.95;2.97;;;;;;;25.64;51.14;99483.78;5034034;28;20033;-87
2022/08/16 10:00:49;;;;;;;6.03;2.42;;;;;;;25.80;51.09;99482.84;5033885;28;20057;-86
2022/08/16 10:03:15;;;;;;;6.75;3.30;;;;;;;26.04;49.71;99480.38;5033412;28;20040;-84
2022/08/16 10:05:40;;;;;;;5.03;2.80;;;;;;;25.88;50.15;99484.16;5017023;28;20039;-87
2022/08/16 10:08:07;;;;;;;5.05;2.42;;;;;;;25.92;50.53;99489.59;5019993;28;20050;-86
2022/08/16 10:10:34;;;;;;;5.88;2.80;;;;;;;25.96;49.85;99493.81;5037922;28;20079;-84
2022/08/16 10:13:12;;;;;;;4.57;2.42;;;;;;;26.00;49.99;99496.47;5045543;28;20037;-84
2022/08/16 10:15:43;;;;;;;5.28;2.97;;;;;;;25.91;49.89;99488.81;5038359;28;20041;-85
2022/08/16 10:18:11;;;;;;;7.03;3.08;;;;;;;25.97;49.73;99491.78;5034592;28;20029;-87
2022/08/16 10:20:41;;;;;;;5.13;2.58;;;;;;;25.95;49.91;99491.47;5034571;28;20455;-89
2022/08/16 10:23:10;;;;;;;4.15;2.10;;;;;;;26.23;49.10;99492.44;5015881;28;20053;-86
2022/08/16 10:25:42;;;;;;;3.97;2.25;;;;;;;26.35;49.07;99497.94;5017394;28;20123;-87
2022/08/16 10:28:07;;;;;;;6.13;2.58;;;;;;;26.27;47.93;99490.28;5036161;28;20091;-86
2022/08/16 10:30:34;;;;;;;5.30;2.75;;;;;;;26.30;47.42;99490.13;5018349;28;20033;-87
2022/08/16 10:33:00;;;;;;;5.30;2.45;;;;;;;26.12;47.80;99487.25;5018413;28;20404;-83
2022/08/16 10:35:25;;;;;;;4.82;2.47;;;;;;;26.31;47.76;99488.91;5034671;28;20068;-85
2022/08/16 10:37:51;;;;;;;4.95;2.42;;;;;;;26.65;46.88;99499.16;5033032;28;20048;-82
2022/08/16 10:40:19;;;;;;;4.68;2.63;;;;;;;26.65;47.13;99499.16;5032718;28;20065;-85
2022/08/16 10:42:44;;;;;;;5.43;2.88;;;;;;;26.52;47.00;99498.47;5014349;28;20042;-87
2022/08/16 10:45:10;;;;;;;6.25;2.28;;;;;;;26.44;44.91;99502.81;5032417;28;20029;-82
2022/08/16 10:47:35;;;;;;;4.72;2.58;;;;;;;26.41;44.68;99497.38;5032851;28;20030;-82
2022/08/16 10:50:02;;;;;;;4.00;2.30;;;;;;;26.51;45.59;99491.34;5032441;28;20077;-84
2022/08/16 10:52:27;;;;;;;5.05;2.50;;;;;;;27.02;45.17;99490.16;5032765;28;20073;-84
2022/08/16 10:54:52;;;;;;;4.65;2.50;;;;;;;27.04;45.74;99494.03;5037425;28;20033;-84
2022/08/16 10:57:18;;;;;;;5.68;2.72;;;;;;;27.02;45.30;99501.34;5037559;28;20427;-85
2022/08/16 10:59:43;;;;;;;6.45;3.03;;;;;;;26.77;46.07;99502.31;5020324;28;20148;-85
2022/08/16 11:02:10;;;;;;;7.82;3.72;;;;;;;26.79;46.13;99499.84;5034698;28;20065;-86
2022/08/16 11:04:36;;;;;;;5.72;2.53;;;;;;;26.80;46.21;99499.38;5033758;28;20104;-85
2022/08/16 11:07:03;;;;;;;4.50;2.50;;;;;;;27.01;45.75;99497.00;5036769;28;20118;-86
2022/08/16 11:09:29;;;;;;;5.55;2.67;;;;;;;27.34;43.05;99500.78;5019696;28;20026;-82
2022/08/16 11:11:55;;;;;;;3.80;2.13;;;;;;;27.37;43.32;99499.06;5037824;28;20382;-84
2022/08/16 11:14:20;;;;;;;6.00;2.70;;;;;;;27.20;44.40;99502.16;5037662;28;20064;-86
2022/08/16 11:16:46;;;;;;;4.72;2.53;;;;;;;27.27;43.87;99490.69;5036326;28;20025;-85
2022/08/16 11:19:11;;;;;;;4.78;2.53;;;;;;;27.40;41.27;99493.34;5037115;28;20460;-84
2022/08/16 11:21:36;;;;;;;5.60;2.25;;;;;;;27.72;41.03;99503.19;5036974;28;20041;-83
2022/08/16 11:24:03;;;;;;;4.72;2.58;;;;;;;27.57;41.27;99502.22;5036527;28;20121;-86
2022/08/16 11:26:29;;;;;;;9.02;4.90;;;;;;;27.63;42.25;99496.78;5019006;28;20454;-85
2022/08/16 11:28:56;;;;;;;5.18;2.75;;;;;;;27.57;41.66;99502.22;5037044;28;20033;-86
2022/08/16 11:31:22;;;;;;;4.20;2.30;;;;;;;27.57;41.04;99493.81;5036940;28;20418;-86
2022/08/16 11:33:47;;;;;;;4.00;2.00;;;;;;;27.84;40.85;99493.81;5036303;28;20541;-86